• Join FlightAware (Why Join?)
  • Login
  • US Flag 
10:19PM EDT


 

Airport Tracker/Info


-or-


 

Live Flight TrackerFlight Track Log ✈ ABX501 ✈ 27-Aug-2013 ✈ KCVG - KIAH

Flight Track Log - Related Links

Times and Time Zones

All times are in EDT time to prevent confusion due to time zone crossing. See the ABX501 flight status page for this flight to view local times or setup timezone preferences in your user account.

Time Position Orientation Groundspeed Altitude Reporting Facility
EDT Latitude Longitude Course Direction KTS MPH feet Rate Location/Type
05:15AM 39.0500 -84.6833 270° West 147 169 1,500  Level Cincinnati TRACON
05:16AM 39.0500 -84.7500 270° West 182 209 3,300 1,680 Climbing Cincinnati TRACON
05:17AM 39.0167 -84.8167 237° Southwest 271 312 5,200 2,100 Climbing Cincinnati TRACON
05:18AM 38.9500 -84.8333 191° South 290 334 7,600 2,520 Climbing Cincinnati TRACON
05:19AM 38.8714 -84.8636 197° South 286 329 10,100 1,980 Climbing Indianapolis Center
05:20AM 38.7858 -84.8889 193° South 314 361 11,500 1,800 Climbing Indianapolis Center
05:21AM 38.6847 -84.9194 193° South 366 421 13,800 2,160 Climbing Indianapolis Center
05:22AM 38.5775 -84.9503 193° South 381 438 16,000 2,040 Climbing Indianapolis Center
05:23AM 38.4667 -84.9853 194° South 402 463 18,000 1,860 Climbing Indianapolis Center
05:24AM 38.3569 -85.0436 203° Southwest 422 486 19,800 1,740 Climbing Indianapolis Center
05:25AM 38.2856 -85.1619 232° Southwest 426 490 21,600 1,620 Climbing Indianapolis Center
05:26AM 38.2314 -85.2856 241° Southwest 432 497 23,100 1,500 Climbing Indianapolis Center
05:27AM 38.1711 -85.4256 241° Southwest 445 512 24,700 1,560 Climbing Indianapolis Center
05:28AM 38.1078 -85.5686 241° Southwest 459 528 26,300 1,500 Climbing Indianapolis Center
05:29AM 38.0297 -85.7083 235° Southwest 475 547 27,800 1,320 Climbing Indianapolis Center
05:30AM 37.9519 -85.8486 235° Southwest 483 556 29,000 1,140 Climbing Indianapolis Center
05:31AM 37.8708 -85.9922 234° Southwest 495 570 30,200 1,320 Climbing Indianapolis Center
05:32AM 37.7558 -86.1008 217° Southwest 515 593 31,700 1,440 Climbing Indianapolis Center
05:33AM 37.6228 -86.1581 199° South 512 589 33,200 1,500 Climbing Indianapolis Center
05:34AM 37.4817 -86.2731 213° Southwest 518 596 34,800 1,320 Climbing Indianapolis Center
05:35AM 37.3797 -86.4042 226° Southwest 516 594 36,000 1,200 Climbing Indianapolis Center
05:36AM 37.2786 -86.5339 226° Southwest 517 595 37,300 960 Climbing Indianapolis Center
05:37AM 37.1825 -86.6678 228° Southwest 513 590 38,000 300 Climbing Indianapolis Center
05:38AM 37.0867 -86.8003 228° Southwest 512 589 38,000  Level Indianapolis Center
05:39AM 36.9911 -86.9306 227° Southwest 507 583 38,000  Level Indianapolis Center
05:40AM 36.9467 -86.9953 229° Southwest 508 585 38,000  Level Memphis Center
05:41AM 36.8542 -87.1211 227° Southwest 498 573 38,000  Level Memphis Center
05:42AM 36.7617 -87.2517 229° Southwest 498 573 38,000  Level Memphis Center
05:43AM 36.6667 -87.3769 227° Southwest 503 579 38,000  Level Memphis Center
05:44AM 36.5658 -87.5150 228° Southwest 503 579 38,000  Level Memphis Center
05:45AM 36.4706 -87.6397 226° Southwest 503 579 38,000  Level Memphis Center
05:46AM 36.3775 -87.7639 227° Southwest 495 570 38,000  Level Memphis Center
05:47AM 36.2861 -87.8878 228° Southwest 495 570 38,000  Level Memphis Center
05:48AM 36.1928 -88.0114 227° Southwest 489 563 38,000  Level Memphis Center
05:49AM 36.0989 -88.1350 227° Southwest 489 563 38,000  Level Memphis Center
05:50AM 36.0153 -88.2372 225° Southwest 475 547 38,000  Level Memphis Center
05:51AM 35.9153 -88.3681 227° Southwest 480 552 38,000  Level Memphis Center
05:52AM 35.8192 -88.4881 225° Southwest 485 558 38,000  Level Memphis Center
05:53AM 35.7292 -88.6103 228° Southwest 490 564 38,000  Level Memphis Center
05:54AM 35.6350 -88.7300 226° Southwest 490 564 38,000  Level Memphis Center
05:55AM 35.5425 -88.8517 227° Southwest 485 558 38,000  Level Memphis Center
05:56AM 35.4500 -88.9706 226° Southwest 479 551 38,000  Level Memphis Center
05:57AM 35.3575 -89.0867 226° Southwest 479 551 38,000  Level Memphis Center
05:58AM 35.2669 -89.2025 226° Southwest 479 551 38,000  Level Memphis Center
05:59AM 35.1742 -89.3231 227° Southwest 479 551 38,000  Level Memphis Center
06:00AM 35.0831 -89.4358 225° Southwest 479 551 38,000  Level Memphis Center
06:01AM 34.9900 -89.5536 226° Southwest 479 551 38,000  Level Memphis Center
06:02AM 34.8969 -89.6708 226° Southwest 474 545 38,000  Level Memphis Center
06:03AM 34.7953 -89.7931 225° Southwest 494 568 38,000  Level Memphis Center
06:04AM 34.7000 -89.9225 228° Southwest 500 575 38,000  Level Memphis Center
06:05AM 34.6083 -90.0367 226° Southwest 497 572 38,000  Level Memphis Center
06:06AM 34.5169 -90.1503 226° Southwest 483 556 38,000  Level Memphis Center
06:07AM 34.4211 -90.2692 226° Southwest 483 556 38,000  Level Memphis Center
06:08AM 34.3292 -90.3822 225° Southwest 483 556 38,000  Level Memphis Center
06:09AM 34.2331 -90.4978 225° Southwest 489 563 38,000  Level Memphis Center
06:10AM 34.1369 -90.6131 225° Southwest 489 563 38,000  Level Memphis Center
06:11AM 34.0533 -90.7181 226° Southwest 489 563 38,000  Level Memphis Center
06:12AM 33.9569 -90.8331 225° Southwest 489 563 38,000  Level Memphis Center
06:13AM 33.8603 -90.9475 225° Southwest 484 557 38,000  Level Memphis Center
06:14AM 33.7617 -91.0694 226° Southwest 484 557 38,000  Level Memphis Center
06:15AM 33.6669 -91.1858 226° Southwest 484 557 38,000  Level Memphis Center
06:16AM 33.5744 -91.2947 224° Southwest 484 557 38,000  Level Memphis Center
06:17AM 33.4756 -91.4083 224° Southwest 484 557 38,000  Level Memphis Center
06:18AM 33.3847 -91.5192 226° Southwest 484 557 38,000  Level Memphis Center
06:20AM 33.1842 -91.7572 225° Southwest 485 558 38,000  Level Fort Worth Center
06:21AM 33.0867 -91.8675 223° Southwest 490 564 38,000  Level Fort Worth Center
06:22AM 32.9975 -91.9744 225° Southwest 477 549 38,000  Level Fort Worth Center
06:23AM 32.9000 -92.0867 224° Southwest 477 549 38,000  Level Fort Worth Center
06:24AM 32.8044 -92.1961 224° Southwest 482 555 38,000  Level Fort Worth Center
06:25AM 32.7128 -92.3028 224° Southwest 482 555 38,000 -60 Level Fort Worth Center
06:27AM 32.5433 -92.4936 224° Southwest 464 534 37,900 -60 Descending Houston Center
06:28AM 32.4528 -92.5992 225° Southwest 459 528 37,900  Level Houston Center
06:29AM 32.3667 -92.7050 226° Southwest 448 516 38,000  Climbing Houston Center
06:30AM 32.2775 -92.8061 224° Southwest 446 513 38,000  Level Houston Center
06:31AM 32.1889 -92.9089 224° Southwest 447 514 38,000  Level Houston Center
06:32AM 32.1003 -93.0111 224° Southwest 449 517 38,000  Level Houston Center
06:33AM 32.0106 -93.1144 224° Southwest 452 520 38,000  Level Houston Center
06:34AM 31.9197 -93.2183 224° Southwest 456 525 38,000  Level Houston Center
06:35AM 31.8281 -93.3228 224° Southwest 458 527 38,000  Level Houston Center
06:36AM 31.7361 -93.4231 223° Southwest 452 520 38,000  Level Houston Center
06:37AM 31.6436 -93.5256 223° Southwest 456 525 38,000  Level Houston Center
06:38AM 31.5456 -93.6164 218° Southwest 462 532 38,000 -300 Level Houston Center
06:39AM 31.4386 -93.6958 212° Southwest 454 522 37,400 -1,140 Descending Houston Center
06:40AM 31.3372 -93.7828 216° Southwest 451 519 35,800 -1,860 Descending Houston Center
06:41AM 31.2356 -93.8703 216° Southwest 452 520 33,700 -2,160 Descending Houston Center
06:42AM 31.1314 -93.9600 216° Southwest 458 527 31,500 -2,400 Descending Houston Center
06:43AM 31.0333 -94.0564 220° Southwest 460 529 28,900 -2,460 Descending Houston Center
06:44AM 30.9522 -94.1572 227° Southwest 445 512 26,600 -2,400 Descending Houston Center
06:45AM 30.8678 -94.2586 226° Southwest 425 489 24,100 -2,640 Descending Houston Center
06:46AM 30.7972 -94.3439 226° Southwest 413 475 22,000 -2,400 Descending Houston Center
06:47AM 30.7275 -94.4261 225° Southwest 402 463 20,100 -2,160 Descending Houston Center
06:48AM 30.6564 -94.5131 226° Southwest 385 443 17,900 -2,280 Descending Houston Center
06:49AM 30.5803 -94.5958 223° Southwest 375 432 15,600 -2,280 Descending Houston Center
06:50AM 30.4833 -94.6594 209° Southwest 362 417 13,300 -2,220 Descending Houston Center
06:51AM 30.3986 -94.7164 210° Southwest 352 405 11,200 -1,500 Descending Houston Center
06:52AM 30.3097 -94.7761 210° Southwest 311 358 10,200 -900 Descending Houston Center
06:53AM 30.2528 -94.8172 212° Southwest 272 313 9,400 -1,140 Descending Houston Center
06:54AM 30.1836 -94.8622 209° Southwest 269 310 8,100 -1,380 Descending Houston Center
06:55AM 30.1142 -94.9072 209° Southwest 263 303 6,500 -1,380 Descending Houston Center
06:56AM 30.0511 -94.9489 210° Southwest 256 295 5,200 -1,260 Descending Houston Center
06:57AM 29.9894 -94.9881 209° Southwest 251 289 4,000 -600 Descending Houston Center
06:58AM 29.9750 -95.0572 256° West 206 237 4,000 -420 Level Houston Center
06:59AM 29.9769 -95.1222 272° West 201 231 3,200 -960 Descending Houston Center
07:00AM 29.9764 -95.1850 269° West 190 219 2,100 -1,020 Descending Houston Center
07:01AM 29.9775 -95.2506 271° West 183 211 1,000 -840 Descending Houston Center
07:02AM 29.9781 -95.2933 271° West 155 178 400 -720 Descending Houston Center
07:04AM 29.9833 -95.3333 270° West  Level FlightAware Approximate